Time;durP1;ratioP1;P1;durP2;ratioP2;P2;SDS_P1;SDS_P2;PMS_P1;PMS_P2;Temp;Humidity;BMP_temperature;BMP_pressure;BME280_temperature;BME280_humidity;BME280_pressure;Samples;Min_cycle;Max_cycle;Signal;HPM_P1;HPM_P2
2021/07/04 00:02:10;;;;;;;1.90;1.80;;;;;;;22.12;59.97;101286.50;5106296;27;20035;-63
2021/07/04 00:04:36;;;;;;;1.55;1.45;;;;;;;22.12;59.97;101280.38;5107089;27;20493;-63
2021/07/04 00:07:03;;;;;;;1.85;1.75;;;;;;;22.13;60.35;101282.00;5108317;27;20036;-63
2021/07/04 00:09:29;;;;;;;1.88;1.77;;;;;;;22.12;60.13;101283.84;5106512;27;20071;-63
2021/07/04 00:11:54;;;;;;;1.67;1.58;;;;;;;22.08;59.92;101269.28;5108561;27;20083;-63
2021/07/04 00:14:20;;;;;;;1.50;1.42;;;;;;;22.12;60.20;101275.88;5107873;27;20043;-64
2021/07/04 00:16:46;;;;;;;1.63;1.52;;;;;;;22.08;60.34;101266.63;5107078;27;20047;-63
2021/07/04 00:19:13;;;;;;;1.55;1.45;;;;;;;22.11;59.83;101274.25;5104833;28;20050;-63
2021/07/04 00:21:38;;;;;;;1.52;1.42;;;;;;;22.12;60.04;101267.09;5103872;28;20114;-63
2021/07/04 00:24:04;;;;;;;1.90;1.80;;;;;;;22.08;60.20;101261.31;5105810;28;20134;-63
2021/07/04 00:26:30;;;;;;;1.77;1.67;;;;;;;22.12;60.11;101265.28;5086145;28;20036;-63
2021/07/04 00:28:56;;;;;;;1.60;1.50;;;;;;;22.12;59.90;101264.44;5105192;28;20047;-64
2021/07/04 00:31:22;;;;;;;1.95;1.80;;;;;;;22.11;60.13;101266.28;5105771;28;20051;-63
2021/07/04 00:33:48;;;;;;;2.10;1.90;;;;;;;22.10;60.12;101261.97;5103997;28;20039;-63
2021/07/04 00:36:13;;;;;;;1.70;1.60;;;;;;;22.11;60.26;101252.19;5086225;28;20035;-63
2021/07/04 00:38:39;;;;;;;1.83;1.73;;;;;;;22.11;60.43;101260.97;5104233;28;20050;-63
2021/07/04 00:41:05;;;;;;;1.70;1.60;;;;;;;22.11;60.09;101260.16;5090154;28;20038;-63
2021/07/04 00:43:31;;;;;;;1.75;1.65;;;;;;;22.11;60.28;101257.50;5105393;27;20028;-63
2021/07/04 00:45:58;;;;;;;1.60;1.50;;;;;;;22.10;60.12;101261.16;5105518;27;20065;-64
2021/07/04 00:48:23;;;;;;;1.80;1.70;;;;;;;22.10;60.06;101259.34;5103322;27;20032;-63
2021/07/04 00:50:50;;;;;;;1.80;1.70;;;;;;;22.10;60.02;101253.22;5106189;27;20035;-63
2021/07/04 00:53:21;;;;;;;1.83;1.73;;;;;;;22.10;60.19;101248.72;5106535;27;20092;-63
2021/07/04 00:55:47;;;;;;;2.00;1.90;;;;;;;22.10;60.22;101247.91;5101529;28;20059;-63
2021/07/04 00:58:15;;;;;;;1.80;1.70;;;;;;;22.09;60.30;101247.09;5087798;28;20067;-63
2021/07/04 01:00:42;;;;;;;1.65;1.55;;;;;;;22.10;60.12;101250.56;5106483;27;20436;-63
2021/07/04 01:03:09;;;;;;;1.95;1.85;;;;;;;22.09;60.35;101249.72;5105021;28;20525;-63
2021/07/04 01:05:44;;;;;;;1.90;1.80;;;;;;;22.08;60.14;101248.06;5104137;27;20043;-63
2021/07/04 01:08:12;;;;;;;1.77;1.67;;;;;;;22.09;59.96;101254.22;5105808;27;20529;-63
2021/07/04 01:10:39;;;;;;;1.90;1.80;;;;;;;22.09;60.04;101262.16;5088524;28;20039;-63
2021/07/04 01:13:12;;;;;;;1.73;1.63;;;;;;;22.09;60.27;101251.56;5110720;27;20152;-63
2021/07/04 01:15:41;;;;;;;1.90;1.80;;;;;;;22.05;60.41;101239.66;5086397;28;20370;-63
2021/07/04 01:18:10;;;;;;;1.75;1.65;;;;;;;22.08;60.28;101250.72;5086745;28;20039;-63
2021/07/04 01:20:40;;;;;;;2.10;1.90;;;;;;;22.08;60.20;101250.72;5085725;28;20050;-63
2021/07/04 01:23:12;;;;;;;1.65;1.55;;;;;;;22.07;59.97;101243.75;5107657;27;20097;-63
2021/07/04 01:25:51;;;;;;;1.90;1.80;;;;;;;22.08;60.17;101247.22;5105331;28;20035;-63
2021/07/04 01:28:20;;;;;;;1.77;1.67;;;;;;;21.96;60.16;101233.59;5086084;27;20031;-63
2021/07/04 01:30:52;;;;;;;1.80;1.70;;;;;;;22.02;59.99;101239.00;5105669;28;20534;-63
2021/07/04 01:33:19;;;;;;;2.03;1.83;;;;;;;22.06;60.23;101242.13;5086253;28;20039;-63
2021/07/04 01:35:45;;;;;;;1.88;1.77;;;;;;;22.08;60.28;101239.28;5105089;28;20076;-63
2021/07/04 01:38:11;;;;;;;1.75;1.65;;;;;;;22.05;60.30;101235.16;5087022;28;20078;-63
2021/07/04 01:40:38;;;;;;;1.80;1.70;;;;;;;22.06;60.02;101242.13;5088465;28;20055;-62
2021/07/04 01:43:04;;;;;;;1.73;1.63;;;;;;;22.06;60.18;101233.34;5084370;28;20036;-62
2021/07/04 01:45:36;;;;;;;2.10;2.00;;;;;;;22.06;60.06;101234.16;5085099;28;20031;-62
2021/07/04 01:48:02;;;;;;;1.80;1.70;;;;;;;22.03;59.96;101226.56;5091692;28;20110;-62
2021/07/04 01:50:35;;;;;;;2.03;1.88;;;;;;;22.07;60.01;101229.69;5090688;28;20031;-62
2021/07/04 01:53:01;;;;;;;1.80;1.70;;;;;;;22.06;60.02;101218.25;5106145;28;20145;-62
2021/07/04 01:55:31;;;;;;;1.90;1.80;;;;;;;22.06;60.25;101222.72;5091384;27;20031;-62
2021/07/04 01:57:57;;;;;;;2.00;1.90;;;;;;;22.05;60.01;101219.25;5108252;28;20058;-62
2021/07/04 02:00:32;;;;;;;1.70;1.60;;;;;;;22.06;60.13;101218.25;5092085;27;20032;-61
2021/07/04 02:03:09;;;;;;;2.10;2.00;;;;;;;22.05;60.34;101219.25;5107026;28;20046;-62
2021/07/04 02:05:39;;;;;;;1.70;1.60;;;;;;;22.03;60.16;101219.41;5090775;27;20472;-61
2021/07/04 02:08:08;;;;;;;2.05;1.85;;;;;;;22.05;60.10;101218.44;5090929;28;20047;-62
2021/07/04 02:10:38;;;;;;;1.73;1.63;;;;;;;22.05;60.23;101221.91;5088951;28;20397;-62
2021/07/04 02:13:05;;;;;;;2.08;1.98;;;;;;;21.96;60.16;101205.25;5092663;28;20040;-62
2021/07/04 02:15:34;;;;;;;1.80;1.70;;;;;;;22.01;60.61;101210.81;5090628;28;20035;-62
2021/07/04 02:18:17;;;;;;;1.90;1.80;;;;;;;22.03;60.25;101206.16;5090478;28;20104;-62
2021/07/04 02:21:01;;;;;;;1.92;1.83;;;;;;;22.03;60.47;101211.47;5091033;27;20786;-62
2021/07/04 02:23:53;;;;;;;1.92;1.83;;;;;;;22.03;60.36;101203.50;5075426;27;20063;-62
2021/07/04 02:26:27;;;;;;;1.83;1.73;;;;;;;22.03;60.26;101206.16;5105256;27;20092;-62
2021/07/04 02:28:57;;;;;;;2.05;1.95;;;;;;;22.03;60.33;101206.16;5091528;28;20466;-63
2021/07/04 02:31:34;;;;;;;1.80;1.70;;;;;;;22.05;60.15;101207.84;5108833;27;20127;-62
2021/07/04 02:34:00;;;;;;;1.63;1.52;;;;;;;21.98;60.32;101202.41;5091103;27;20107;-62
2021/07/04 02:36:31;;;;;;;1.98;1.88;;;;;;;22.03;60.09;101213.28;5091253;27;20035;-62
2021/07/04 02:39:04;;;;;;;1.85;1.75;;;;;;;21.98;60.06;101205.06;5090490;28;20126;-62
2021/07/04 02:41:31;;;;;;;2.00;1.83;;;;;;;22.01;59.96;101207.34;5089586;27;20051;-62
2021/07/04 02:43:57;;;;;;;2.00;1.90;;;;;;;21.99;60.12;101204.06;5091152;28;20664;-62
2021/07/04 02:46:23;;;;;;;2.28;2.08;;;;;;;22.02;60.10;101207.16;5090350;28;20036;-62
2021/07/04 02:48:49;;;;;;;2.00;1.90;;;;;;;22.00;60.15;101208.34;5090381;28;20039;-62
2021/07/04 02:51:15;;;;;;;2.13;1.98;;;;;;;21.99;60.08;101212.03;5090650;28;20485;-62
2021/07/04 02:53:41;;;;;;;1.90;1.80;;;;;;;21.93;60.27;101195.03;5091045;27;20109;-63
2021/07/04 02:56:14;;;;;;;1.90;1.80;;;;;;;22.02;60.35;101209.00;5088239;28;20047;-62
2021/07/04 02:58:40;;;;;;;1.80;1.70;;;;;;;22.02;60.18;101209.00;5089252;27;20541;-62
2021/07/04 03:01:05;;;;;;;1.70;1.60;;;;;;;22.01;59.98;101208.16;5089578;28;20031;-62
2021/07/04 03:03:31;;;;;;;1.90;1.80;;;;;;;22.02;60.09;101216.94;5108147;28;20039;-62
2021/07/04 03:05:58;;;;;;;1.95;1.85;;;;;;;22.01;60.11;101213.47;5103745;27;20047;-62
2021/07/04 03:08:23;;;;;;;1.90;1.80;;;;;;;21.99;60.36;101207.53;5089112;28;20710;-62
2021/07/04 03:10:50;;;;;;;1.88;1.77;;;;;;;22.00;60.19;101214.47;5088300;28;20364;-62
2021/07/04 03:13:22;;;;;;;1.75;1.65;;;;;;;22.01;60.17;101212.66;5085467;28;20473;-62
2021/07/04 03:15:48;;;;;;;2.10;2.00;;;;;;;21.99;60.74;101214.66;5105221;28;20043;-62
2021/07/04 03:18:15;;;;;;;2.17;2.03;;;;;;;22.00;60.23;101211.00;5089423;28;20469;-62
2021/07/04 03:20:42;;;;;;;1.70;1.60;;;;;;;22.00;60.30;101216.31;5108946;28;20153;-62
2021/07/04 03:23:11;;;;;;;2.53;2.10;;;;;;;22.00;60.16;101211.84;5102644;28;20046;-62
2021/07/04 03:25:37;;;;;;;1.90;1.80;;;;;;;21.99;60.42;101218.16;5089779;28;20970;-62
2021/07/04 03:28:05;;;;;;;2.00;1.90;;;;;;;22.01;60.28;101212.66;5089866;28;20497;-62
2021/07/04 03:30:34;;;;;;;2.10;2.00;;;;;;;22.00;60.41;101203.88;5105194;28;20169;-62
2021/07/04 03:33:02;;;;;;;1.90;1.80;;;;;;;21.98;60.16;101202.41;5071041;28;20409;-63
2021/07/04 03:35:29;;;;;;;2.05;1.95;;;;;;;22.01;60.33;101204.69;5104804;28;20103;-62
2021/07/04 03:37:58;;;;;;;1.90;1.80;;;;;;;22.00;60.41;101201.22;5085438;28;20493;-62
2021/07/04 03:40:24;;;;;;;1.75;1.65;;;;;;;22.00;60.38;101206.53;5104102;28;20043;-62
2021/07/04 03:42:59;;;;;;;2.05;1.95;;;;;;;22.00;60.35;101203.06;5086860;28;20063;-62
2021/07/04 03:45:31;;;;;;;1.80;1.70;;;;;;;22.00;60.13;101195.09;5086947;28;20048;-62
2021/07/04 03:47:58;;;;;;;1.90;1.80;;;;;;;22.01;60.41;101199.41;5105686;28;20149;-62
2021/07/04 03:50:35;;;;;;;2.00;1.90;;;;;;;22.00;60.40;101195.09;5087259;28;20035;-63
2021/07/04 03:53:02;;;;;;;2.05;1.95;;;;;;;22.00;60.33;101195.09;5107457;28;20068;-62
2021/07/04 03:55:29;;;;;;;1.98;1.88;;;;;;;21.99;60.22;101204.88;5104941;28;20054;-62
2021/07/04 03:57:56;;;;;;;2.00;1.90;;;;;;;22.00;60.38;101201.22;5099286;28;20040;-62
2021/07/04 04:00:31;;;;;;;2.40;2.20;;;;;;;22.00;60.24;101200.41;5088604;28;20046;-62
2021/07/04 04:03:05;;;;;;;2.00;1.90;;;;;;;22.00;60.11;101200.41;5086199;28;20036;-62
2021/07/04 04:05:38;;;;;;;1.80;1.70;;;;;;;22.01;60.20;101197.56;5085264;28;20819;-61
2021/07/04 04:08:07;;;;;;;2.10;2.00;;;;;;;21.87;60.21;101177.19;5050749;28;1090457;-62
2021/07/04 04:10:33;;;;;;;2.10;2.00;;;;;;;22.01;60.21;101210.81;5104540;27;20031;-62
2021/07/04 04:13:04;;;;;;;2.20;2.10;;;;;;;22.02;60.04;101204.50;5089164;28;20055;-62
2021/07/04 04:15:32;;;;;;;2.10;2.00;;;;;;;22.01;60.17;101197.56;5086817;28;20544;-62
2021/07/04 04:17:58;;;;;;;2.60;2.40;;;;;;;22.02;59.99;101199.22;5106497;28;20035;-62
2021/07/04 04:20:25;;;;;;;2.17;2.08;;;;;;;22.03;60.08;101200.84;5104854;27;20251;-62
2021/07/04 04:22:52;;;;;;;2.03;1.92;;;;;;;22.03;60.08;101206.16;5088524;28;20036;-62
2021/07/04 04:25:18;;;;;;;2.03;1.92;;;;;;;22.04;60.09;101196.38;5088295;27;20219;-62
2021/07/04 04:27:45;;;;;;;2.20;2.00;;;;;;;22.01;60.41;101199.41;5085625;28;20505;-62
2021/07/04 04:30:16;;;;;;;2.10;2.00;;;;;;;21.99;59.99;101196.94;5086675;28;20199;-63
2021/07/04 04:32:45;;;;;;;2.05;1.95;;;;;;;22.02;59.98;101207.16;5087353;28;20036;-62
2021/07/04 04:35:11;;;;;;;2.00;1.90;;;;;;;22.03;60.04;101202.69;5084995;28;20039;-62
2021/07/04 04:37:37;;;;;;;2.13;1.92;;;;;;;21.95;59.97;101193.00;5088937;28;20378;-63
2021/07/04 04:40:05;;;;;;;2.03;1.88;;;;;;;22.03;60.29;101205.34;5087841;28;20073;-62
2021/07/04 04:42:30;;;;;;;2.30;2.10;;;;;;;22.03;60.24;101202.69;5104755;27;20112;-62
2021/07/04 04:44:56;;;;;;;2.30;2.10;;;;;;;22.03;60.21;101207.97;5107212;27;20505;-62
2021/07/04 04:47:21;;;;;;;2.22;2.13;;;;;;;22.01;60.02;101207.34;5105399;27;20043;-62
2021/07/04 04:49:47;;;;;;;1.80;1.70;;;;;;;22.03;60.24;101203.50;5087682;27;20039;-62
2021/07/04 04:52:12;;;;;;;2.03;1.92;;;;;;;22.03;60.29;101206.16;5104657;27;20048;-62
2021/07/04 04:54:38;;;;;;;2.30;2.10;;;;;;;22.06;60.27;101198.88;5106713;27;20042;-63
2021/07/04 04:57:07;;;;;;;2.00;1.90;;;;;;;21.97;60.18;101191.00;5085369;28;20062;-62
2021/07/04 04:59:34;;;;;;;2.00;1.90;;;;;;;22.02;59.91;101204.50;5105286;28;20039;-62
2021/07/04 05:02:00;;;;;;;2.30;2.10;;;;;;;22.05;60.16;101200.69;5103771;28;20751;-62
2021/07/04 05:04:26;;;;;;;2.13;2.03;;;;;;;22.03;59.82;101198.19;5089312;28;20042;-62
2021/07/04 05:06:52;;;;;;;2.40;2.20;;;;;;;22.05;60.17;101199.88;5105873;28;20030;-62
2021/07/04 05:09:17;;;;;;;2.15;2.05;;;;;;;22.05;60.07;101198.03;5104773;28;20043;-62
2021/07/04 05:11:44;;;;;;;2.30;2.13;;;;;;;22.05;60.25;101199.88;5104745;27;20039;-62
2021/07/04 05:14:11;;;;;;;2.33;2.20;;;;;;;22.01;59.95;101191.44;5107157;27;20395;-62
2021/07/04 05:16:37;;;;;;;2.03;1.92;;;;;;;22.05;60.18;101198.03;5106755;27;20103;-63
2021/07/04 05:19:05;;;;;;;2.10;2.00;;;;;;;22.03;60.40;101192.06;5108756;27;20035;-62
2021/07/04 05:21:34;;;;;;;2.60;2.40;;;;;;;22.05;60.39;101197.22;5104478;27;20043;-62
2021/07/04 05:24:01;;;;;;;2.33;2.22;;;;;;;22.01;60.20;101188.78;5089226;28;20027;-62
2021/07/04 05:26:27;;;;;;;2.22;2.10;;;;;;;22.05;59.95;101190.09;5105445;27;20048;-62
2021/07/04 05:28:54;;;;;;;2.10;2.00;;;;;;;22.05;59.95;101194.56;5108315;28;20040;-62
2021/07/04 05:31:19;;;;;;;2.00;1.90;;;;;;;22.06;59.94;101189.06;5103286;28;20040;-62
2021/07/04 05:33:45;;;;;;;2.35;2.20;;;;;;;22.05;60.01;101192.75;5088523;28;20052;-62
2021/07/04 05:36:10;;;;;;;2.28;2.17;;;;;;;22.05;59.92;101190.09;5105850;28;20040;-62
2021/07/04 05:38:38;;;;;;;2.28;2.13;;;;;;;22.06;60.26;101190.91;5105555;28;20036;-62
2021/07/04 05:41:04;;;;;;;2.20;2.10;;;;;;;22.06;60.17;101193.56;5104025;28;20035;-63
2021/07/04 05:43:29;;;;;;;2.53;2.33;;;;;;;22.06;59.80;101188.25;5089714;28;20038;-62
2021/07/04 05:46:00;;;;;;;2.20;2.00;;;;;;;22.04;60.09;101188.41;5105382;28;20486;-63
2021/07/04 05:48:27;;;;;;;2.58;1.98;;;;;;;22.08;59.75;101183.59;5107838;28;20478;-62
2021/07/04 05:50:52;;;;;;;2.13;2.03;;;;;;;22.09;59.95;101185.25;5105815;28;20686;-62
2021/07/04 05:53:18;;;;;;;2.17;1.98;;;;;;;22.09;60.04;101182.59;5107620;28;20054;-62
2021/07/04 05:55:44;;;;;;;2.35;2.15;;;;;;;22.10;60.09;101185.06;5105525;28;20035;-62
2021/07/04 05:58:10;;;;;;;2.05;1.95;;;;;;;22.02;59.84;101175.34;5108767;28;20374;-62
2021/07/04 06:00:36;;;;;;;2.25;2.15;;;;;;;22.08;59.85;101187.06;5105989;28;20032;-62
2021/07/04 06:03:02;;;;;;;2.25;2.05;;;;;;;22.06;59.78;101177.66;5095024;28;20488;-62
2021/07/04 06:05:28;;;;;;;2.33;2.13;;;;;;;22.10;59.76;101187.72;5103380;28;20340;-62
2021/07/04 06:07:54;;;;;;;2.30;2.20;;;;;;;22.09;59.63;101183.44;5103081;28;20039;-62
2021/07/04 06:10:20;;;;;;;2.40;2.20;;;;;;;22.12;60.07;101190.19;5105713;28;20031;-62
2021/07/04 06:12:45;;;;;;;2.10;2.00;;;;;;;22.12;59.89;101193.66;5103537;28;20574;-63
2021/07/04 06:15:12;;;;;;;2.00;1.90;;;;;;;22.13;59.91;101186.53;5103790;28;20692;-62
2021/07/04 06:17:38;;;;;;;2.50;2.30;;;;;;;22.09;59.83;101183.44;5104460;28;20447;-62
2021/07/04 06:20:06;;;;;;;2.10;2.00;;;;;;;22.13;59.59;101186.53;5092039;28;20034;-62
2021/07/04 06:22:32;;;;;;;2.50;2.30;;;;;;;22.08;59.72;101184.41;5110861;28;20432;-62
2021/07/04 06:24:57;;;;;;;2.40;2.20;;;;;;;22.10;59.78;101182.41;5107974;28;20382;-62
2021/07/04 06:27:23;;;;;;;2.55;2.35;;;;;;;22.05;59.96;101176.81;5099365;28;20042;-63
2021/07/04 06:29:49;;;;;;;2.58;2.38;;;;;;;22.15;59.53;101192.47;5103063;28;20040;-62
2021/07/04 06:32:14;;;;;;;2.63;2.42;;;;;;;22.14;59.88;101190.81;5098240;28;20028;-62
2021/07/04 06:34:40;;;;;;;2.33;2.13;;;;;;;22.14;59.90;101191.63;5111019;27;20038;-62
2021/07/04 06:37:05;;;;;;;2.70;2.50;;;;;;;22.15;59.68;101197.75;5112077;27;20053;-62
2021/07/04 06:39:31;;;;;;;2.15;2.05;;;;;;;22.14;59.53;101191.63;5119223;27;20051;-63
2021/07/04 06:41:56;;;;;;;2.60;2.40;;;;;;;22.14;59.72;101196.94;5126338;27;20388;-62
2021/07/04 06:44:22;;;;;;;2.38;2.17;;;;;;;22.15;59.92;101192.47;5103023;27;20397;-62
2021/07/04 06:46:52;;;;;;;;;;;;;;;22.16;59.65;101186.97;5116996;27;20380;-62
2021/07/04 06:49:17;;;;;;;2.60;2.40;;;;;;;22.15;59.66;101182.69;5125666;27;19923;-62
2021/07/04 06:51:43;;;;;;;2.65;2.45;;;;;;;22.14;59.74;101178.38;5120117;27;20039;-63
2021/07/04 06:54:08;;;;;;;2.63;2.42;;;;;;;22.16;59.59;101180.84;5118215;27;20040;-62
2021/07/04 06:56:34;;;;;;;2.60;2.40;;;;;;;22.19;59.62;101188.41;5108946;27;20525;-62
2021/07/04 06:58:59;;;;;;;2.55;2.35;;;;;;;22.21;59.80;101184.56;5109625;27;20373;-62
2021/07/04 07:01:25;;;;;;;2.60;2.40;;;;;;;22.22;59.80;101183.56;5087211;28;20136;-62
2021/07/04 07:03:51;;;;;;;2.90;2.70;;;;;;;22.18;59.46;101182.28;5089723;28;20039;-63
2021/07/04 07:06:17;;;;;;;2.95;2.65;;;;;;;22.24;59.51;101175.41;5105883;27;20547;-62
2021/07/04 07:08:43;;;;;;;2.95;2.75;;;;;;;22.22;59.58;101178.25;5106705;27;20086;-62
2021/07/04 07:11:08;;;;;;;2.90;2.70;;;;;;;22.22;59.72;101172.13;5107953;27;20389;-62
2021/07/04 07:13:34;;;;;;;2.85;2.65;;;;;;;22.23;59.75;101174.59;5105730;28;20125;-62
2021/07/04 07:16:00;;;;;;;2.80;2.60;;;;;;;22.22;59.50;101170.28;5106221;28;20039;-62
2021/07/04 07:18:25;;;;;;;2.80;2.60;;;;;;;22.25;59.71;101169.09;5105800;27;20051;-62
2021/07/04 07:20:52;;;;;;;3.33;3.03;;;;;;;22.25;59.28;101167.25;5087956;28;20783;-62
2021/07/04 07:23:17;;;;;;;3.13;2.83;;;;;;;22.25;59.43;101161.97;5090154;28;20039;-62
2021/07/04 07:25:43;;;;;;;3.20;2.90;;;;;;;22.25;59.37;101169.09;5104195;27;20508;-62
2021/07/04 07:28:09;;;;;;;3.08;2.85;;;;;;;22.26;59.39;101160.13;5089939;28;20051;-62
2021/07/04 07:30:43;;;;;;;3.47;3.17;;;;;;;22.26;59.35;101160.13;5087618;28;20190;-62
2021/07/04 07:33:11;;;;;;;3.20;2.90;;;;;;;22.29;59.25;101159.78;5088839;28;20047;-62
2021/07/04 07:35:37;;;;;;;3.40;3.05;;;;;;;22.29;59.33;101159.78;5108236;27;20486;-62
2021/07/04 07:38:04;;;;;;;3.00;2.70;;;;;;;22.30;59.23;101154.28;5089502;28;20126;-62
2021/07/04 07:40:34;;;;;;;3.20;2.90;;;;;;;22.30;59.66;101150.81;5108436;27;20481;-62
2021/07/04 07:43:00;;;;;;;3.10;2.80;;;;;;;22.30;59.23;101148.97;5106291;27;20039;-62
2021/07/04 07:45:26;;;;;;;3.40;3.10;;;;;;;22.31;59.61;101149.78;5089306;28;20051;-62
2021/07/04 07:47:58;;;;;;;3.25;2.95;;;;;;;22.31;59.53;101149.78;5086787;28;20039;-62
2021/07/04 07:50:26;;;;;;;3.35;3.05;;;;;;;22.36;59.44;101146.56;5080884;28;20062;-62
2021/07/04 07:52:52;;;;;;;3.08;2.78;;;;;;;22.36;59.41;101147.38;5112203;27;20401;-62
2021/07/04 07:55:17;;;;;;;3.00;2.70;;;;;;;22.38;58.93;101150.66;5106839;28;20043;-63
2021/07/04 07:57:43;;;;;;;3.00;2.80;;;;;;;22.40;59.17;101153.94;5099927;27;20036;-62
2021/07/04 08:00:11;;;;;;;3.50;2.88;;;;;;;22.41;59.23;101154.78;5110506;27;20043;-61
2021/07/04 08:02:44;;;;;;;3.20;2.90;;;;;;;22.41;58.90;101149.47;5105072;28;20092;-62
2021/07/04 08:05:16;;;;;;;3.20;2.88;;;;;;;22.41;59.00;101147.63;5086326;28;20044;-62
2021/07/04 08:07:42;;;;;;;3.05;2.78;;;;;;;22.43;59.11;101145.63;5102793;27;20043;-62
2021/07/04 08:10:08;;;;;;;3.10;2.80;;;;;;;22.40;58.96;101135.38;5105328;27;20043;-62
2021/07/04 08:12:34;;;;;;;3.00;2.70;;;;;;;22.33;58.96;101123.06;5104979;28;20484;-62
2021/07/04 08:15:00;;;;;;;2.95;2.75;;;;;;;22.45;59.18;101148.09;5106936;28;20043;-62
2021/07/04 08:17:25;;;;;;;2.80;2.58;;;;;;;22.44;59.08;101135.81;5104821;28;20042;-62
2021/07/04 08:19:51;;;;;;;2.70;2.50;;;;;;;22.45;58.81;101137.50;5103634;28;20084;-62
2021/07/04 08:22:16;;;;;;;3.10;2.70;;;;;;;22.40;59.30;101126.59;5110989;27;20038;-62
2021/07/04 08:24:42;;;;;;;3.10;2.60;;;;;;;22.46;58.65;101128.50;5107465;27;20039;-62
2021/07/04 08:27:07;;;;;;;2.88;2.67;;;;;;;22.47;58.84;101130.97;5115467;27;20036;-62
2021/07/04 08:29:33;;;;;;;3.08;2.67;;;;;;;22.47;58.79;101125.66;5107761;27;20050;-62
2021/07/04 08:31:59;;;;;;;2.95;2.70;;;;;;;22.34;58.67;101106.97;5104985;27;20039;-62
2021/07/04 08:34:25;;;;;;;2.60;2.40;;;;;;;22.48;58.68;101127.31;5109045;27;20545;-62
2021/07/04 08:36:51;;;;;;;2.83;2.20;;;;;;;22.42;58.95;101114.78;5105335;27;20035;-62
2021/07/04 08:39:16;;;;;;;2.53;2.33;;;;;;;22.51;58.86;101126.94;5104259;28;20480;-63
2021/07/04 08:41:42;;;;;;;3.05;2.75;;;;;;;22.52;58.90;101131.22;5105554;28;20500;-62
2021/07/04 08:44:09;;;;;;;3.20;2.60;;;;;;;22.53;58.74;101126.72;5109200;27;20488;-62
2021/07/04 08:46:45;;;;;;;2.83;2.53;;;;;;;22.53;58.59;101127.56;5103675;28;20040;-62
2021/07/04 08:49:12;;;;;;;2.88;2.63;;;;;;;22.53;58.95;101127.56;5105337;28;20028;-62
2021/07/04 08:51:38;;;;;;;2.75;2.55;;;;;;;22.55;58.94;101127.38;5105103;27;20043;-62
2021/07/04 08:54:05;;;;;;;2.83;2.63;;;;;;;22.58;58.37;101130.44;5107331;27;20059;-61
2021/07/04 08:56:30;;;;;;;2.85;2.58;;;;;;;22.61;58.45;101132.72;5105130;27;20790;-62
2021/07/04 08:58:56;;;;;;;2.95;2.67;;;;;;;22.63;58.58;101121.94;5105056;27;20085;-62
2021/07/04 09:01:24;;;;;;;2.90;2.70;;;;;;;22.62;58.35;101117.63;5103787;28;20035;-62
2021/07/04 09:03:52;;;;;;;3.15;2.80;;;;;;;22.61;58.74;101111.47;5105577;28;20066;-62
2021/07/04 09:06:40;;;;;;;3.08;2.78;;;;;;;22.59;58.70;101116.16;5105994;28;20386;-62
2021/07/04 09:09:16;;;;;;;2.70;2.50;;;;;;;22.53;58.93;101105.50;5106269;27;20051;-62
2021/07/04 09:11:55;;;;;;;4.32;2.83;;;;;;;22.56;58.90;101115.72;5102550;27;20052;-62
2021/07/04 09:14:34;;;;;;;2.75;2.50;;;;;;;22.57;58.80;101107.56;5088084;28;20126;-62
2021/07/04 09:17:01;;;;;;;2.92;2.72;;;;;;;22.61;58.91;101111.47;5107715;27;20035;-62
2021/07/04 09:19:26;;;;;;;2.60;2.40;;;;;;;22.64;58.50;101102.34;5104610;28;20453;-62
2021/07/04 09:22:00;;;;;;;2.72;2.53;;;;;;;22.65;58.48;101109.28;5105730;27;20074;-62
2021/07/04 09:24:37;;;;;;;3.00;2.50;;;;;;;22.64;58.52;101097.03;5105363;27;20032;-62
2021/07/04 09:27:05;;;;;;;2.58;2.38;;;;;;;22.69;58.31;101101.75;5105963;27;20126;-63
2021/07/04 09:29:50;;;;;;;2.75;2.55;;;;;;;22.69;58.62;101107.06;5104921;28;20035;-63
2021/07/04 09:32:17;;;;;;;2.88;2.60;;;;;;;22.70;58.51;101111.38;5105281;28;20035;-62
2021/07/04 09:34:54;;;;;;;2.60;2.40;;;;;;;22.71;58.60;101099.72;5105363;28;20027;-62
2021/07/04 09:37:32;;;;;;;3.25;2.47;;;;;;;22.66;58.30;101087.03;5104822;28;20100;-62
2021/07/04 09:40:13;;;;;;;2.60;2.40;;;;;;;22.72;58.43;101099.53;5105317;28;20058;-62
2021/07/04 09:42:58;;;;;;;2.95;2.65;;;;;;;22.72;58.64;101090.75;5103611;28;20031;-62
2021/07/04 09:45:40;;;;;;;2.70;2.50;;;;;;;22.72;58.43;101096.88;5107163;28;20070;-63
2021/07/04 09:48:07;;;;;;;2.60;2.40;;;;;;;22.72;58.55;101094.22;5104885;28;20058;-62
2021/07/04 09:50:41;;;;;;;3.63;3.30;;;;;;;22.74;58.34;101091.38;5104865;28;20039;-62
2021/07/04 09:53:07;;;;;;;3.40;2.80;;;;;;;22.75;58.45;101085.06;5104295;28;20039;-62
2021/07/04 09:55:33;;;;;;;3.88;3.13;;;;;;;22.75;58.33;101087.72;5104540;28;20039;-62
2021/07/04 09:58:01;;;;;;;3.10;2.90;;;;;;;22.79;58.34;101086.31;5083206;28;20024;-62
2021/07/04 10:00:29;;;;;;;3.17;2.88;;;;;;;22.79;58.44;101081.81;5106470;28;20031;-62
2021/07/04 10:03:08;;;;;;;2.83;2.63;;;;;;;22.80;58.46;101077.31;5104469;28;20036;-62
2021/07/04 10:05:34;;;;;;;;;;;;;;;22.81;58.46;101074.50;5104198;28;20036;-62
2021/07/04 10:08:00;;;;;;;3.00;2.70;;;;;;;22.81;58.41;101077.16;5106232;28;19918;-62
2021/07/04 10:10:25;;;;;;;2.97;2.78;;;;;;;22.81;58.46;101071.84;5113087;27;20054;-62
2021/07/04 10:12:54;;;;;;;3.03;2.72;;;;;;;22.81;58.48;101069.19;5109428;27;20149;-62
2021/07/04 10:15:19;;;;;;;3.38;2.90;;;;;;;22.81;58.62;101077.16;5108397;27;20481;-63
2021/07/04 10:17:46;;;;;;;2.88;2.65;;;;;;;22.80;58.52;101072.88;5109520;28;20157;-62
2021/07/04 10:20:12;;;;;;;3.25;2.95;;;;;;;22.83;58.26;101069.03;5109766;27;20138;-63
2021/07/04 10:22:38;;;;;;;3.45;3.03;;;;;;;22.86;58.48;101068.63;5105090;27;20028;-62
2021/07/04 10:25:05;;;;;;;3.15;2.83;;;;;;;22.86;58.47;101074.75;5107893;27;20097;-62
2021/07/04 10:27:39;;;;;;;3.13;2.85;;;;;;;22.85;58.13;101078.44;5108038;27;20041;-62
2021/07/04 10:30:06;;;;;;;2.88;2.67;;;;;;;22.89;58.47;101069.06;5106820;27;20453;-62
2021/07/04 10:32:32;;;;;;;3.65;3.35;;;;;;;22.91;58.24;101066.22;5103783;27;20062;-62
2021/07/04 10:35:07;;;;;;;3.13;2.92;;;;;;;22.90;58.27;101059.25;5108123;27;20501;-63
2021/07/04 10:37:35;;;;;;;3.00;2.72;;;;;;;22.90;58.50;101061.91;5108695;27;20115;-63
2021/07/04 10:40:35;;;;;;;4.97;4.18;;;;;;;22.94;58.16;101049.88;5109593;27;20044;-62
2021/07/04 10:43:01;;;;;;;3.90;3.60;;;;;;;22.91;58.18;101053.75;5106635;27;20031;-62
2021/07/04 10:45:38;;;;;;;3.65;3.35;;;;;;;22.94;58.03;101049.88;5109411;27;20489;-63
2021/07/04 10:48:33;;;;;;;3.30;3.00;;;;;;;22.96;58.30;101044.38;5108097;27;20032;-63
2021/07/04 10:51:15;;;;;;;3.42;3.13;;;;;;;22.95;58.33;101040.06;5091344;27;20051;-62
2021/07/04 10:53:52;;;;;;;2.97;2.67;;;;;;;22.93;58.15;101021.69;5106962;28;20035;-62
2021/07/04 10:56:33;;;;;;;4.30;3.30;;;;;;;22.98;58.32;101037.88;5114495;27;20040;-62
2021/07/04 10:59:02;;;;;;;3.80;2.95;;;;;;;22.99;57.93;101033.38;5108744;27;20485;-63
2021/07/04 11:01:52;;;;;;;3.17;2.83;;;;;;;22.99;58.11;101033.38;5108464;27;20106;-62
2021/07/04 11:04:30;;;;;;;3.20;2.90;;;;;;;22.99;58.21;101030.72;5106824;27;20046;-62
2021/07/04 11:07:00;;;;;;;3.20;2.90;;;;;;;23.00;58.35;101029.72;5107337;27;20043;-62
2021/07/04 11:09:55;;;;;;;3.08;2.78;;;;;;;23.00;57.97;101025.22;5107454;28;20056;-63
2021/07/04 11:12:25;;;;;;;3.50;3.20;;;;;;;22.99;57.96;101026.25;5108886;27;20071;-62
2021/07/04 11:15:13;;;;;;;3.50;3.20;;;;;;;22.98;57.93;101023.75;5105133;28;20051;-63
2021/07/04 11:17:56;;;;;;;4.43;3.90;;;;;;;22.97;58.26;101014.97;5107641;27;20127;-62
2021/07/04 11:20:26;;;;;;;3.67;3.33;;;;;;;23.01;58.09;101013.59;5106608;27;20150;-62
2021/07/04 11:23:03;;;;;;;3.35;3.05;;;;;;;22.99;58.05;101009.47;5106868;27;20023;-63
2021/07/04 11:25:39;;;;;;;3.28;2.97;;;;;;;23.00;58.04;101017.25;5108327;27;20051;-63
2021/07/04 11:28:20;;;;;;;3.40;2.97;;;;;;;22.99;58.20;101012.97;5106542;27;20434;-62
2021/07/04 11:30:45;;;;;;;3.13;2.83;;;;;;;23.01;57.81;101002.13;5106205;27;20540;-63
2021/07/04 11:33:32;;;;;;;3.80;3.50;;;;;;;23.01;58.01;101010.09;5107814;27;20040;-63
2021/07/04 11:36:09;;;;;;;3.20;2.90;;;;;;;22.99;58.09;101002.34;5106792;27;20039;-62